Time;durP1;ratioP1;P1;durP2;ratioP2;P2;SDS_P1;SDS_P2;PMS_P1;PMS_P2;Temp;Humidity;BMP_temperature;BMP_pressure;BME280_temperature;BME280_humidity;BME280_pressure;Samples;Min_cycle;Max_cycle;Signal;HPM_P1;HPM_P2
2022/03/10 00:00:04;;;;;;;20.33;12.65;;;;;;;;;;6165899;23;20047;-88
2022/03/10 00:05:34;;;;;;;21.45;13.13;;;;;;;;;;6191751;23;20036;-88
2022/03/10 00:08:00;;;;;;;20.85;12.05;;;;;;;;;;6192181;23;20088;-88
2022/03/10 00:10:26;;;;;;;16.40;11.82;;;;;;;;;;6165899;23;20005;-88
2022/03/10 00:12:53;;;;;;;16.60;11.98;;;;;;;;;;6165704;23;20005;-88
2022/03/10 00:15:23;;;;;;;17.80;11.90;;;;;;;;;;6191964;23;20001;-87
2022/03/10 00:17:49;;;;;;;15.63;11.00;;;;;;;;;;6192126;23;19997;-89
2022/03/10 00:20:16;;;;;;;19.50;12.60;;;;;;;;;;6191468;23;20020;-93
2022/03/10 00:22:49;;;;;;;19.88;13.73;;;;;;;;;;6192035;23;20004;-90
2022/03/10 00:25:16;;;;;;;22.52;15.35;;;;;;;;;;6192053;23;20025;-88
2022/03/10 00:27:42;;;;;;;24.48;15.68;;;;;;;;;;6165729;23;20005;-88
2022/03/10 00:30:08;;;;;;;27.35;17.02;;;;;;;;;;6192047;23;19997;-88
2022/03/10 00:35:37;;;;;;;31.08;18.27;;;;;;;;;;6191412;23;20015;-89
2022/03/10 00:38:04;;;;;;;29.20;19.23;;;;;;;;;;6165921;23;20008;-88
2022/03/10 00:40:30;;;;;;;33.83;19.85;;;;;;;;;;6191283;23;20067;-88
2022/03/10 00:42:56;;;;;;;31.65;18.92;;;;;;;;;;6165540;23;20032;-88
2022/03/10 00:45:25;;;;;;;29.75;18.27;;;;;;;;;;6191827;23;20091;-88
2022/03/10 00:47:52;;;;;;;27.45;16.02;;;;;;;;;;6191768;23;20055;-88
2022/03/10 00:50:20;;;;;;;23.20;15.50;;;;;;;;;;6165756;23;20005;-88
2022/03/10 00:52:47;;;;;;;23.35;14.52;;;;;;;;;;6191415;23;20005;-88
2022/03/10 00:55:16;;;;;;;25.60;15.32;;;;;;;;;;6191727;23;20081;-88
2022/03/10 00:57:42;;;;;;;28.33;16.20;;;;;;;;;;6191842;23;20005;-88
2022/03/10 01:00:08;;;;;;;29.20;16.02;;;;;;;;;;6191628;23;20001;-91
2022/03/10 01:02:34;;;;;;;33.63;16.90;;;;;;;;;;6191673;23;20004;-87
2022/03/10 01:05:01;;;;;;;30.95;15.27;;;;;;;;;;6191086;23;20307;-86
2022/03/10 01:07:27;;;;;;;28.50;15.45;;;;;;;;;;6191357;23;20415;-87
2022/03/10 01:09:53;;;;;;;22.95;13.02;;;;;;;;;;6192007;23;20080;-88
2022/03/10 01:12:19;;;;;;;19.00;12.48;;;;;;;;;;6191587;23;20356;-92
2022/03/10 01:14:45;;;;;;;15.50;11.65;;;;;;;;;;6191418;23;20067;-91
2022/03/10 01:17:11;;;;;;;17.45;12.43;;;;;;;;;;6191548;23;20017;-92
2022/03/10 01:19:37;;;;;;;22.15;12.98;;;;;;;;;;6191025;23;20021;-91
2022/03/10 01:22:03;;;;;;;19.60;11.90;;;;;;;;;;6191436;23;20067;-92
2022/03/10 01:24:30;;;;;;;19.83;12.27;;;;;;;;;;6165259;23;20009;-90
2022/03/10 01:26:56;;;;;;;22.65;12.55;;;;;;;;;;6165177;23;20017;-90
2022/03/10 01:29:22;;;;;;;18.90;12.48;;;;;;;;;;6191606;23;20047;-90
2022/03/10 01:32:06;;;;;;;17.92;12.00;;;;;;;;;;6191349;23;20005;-90
2022/03/10 01:34:32;;;;;;;18.85;11.93;;;;;;;;;;6191001;23;20016;-89
2022/03/10 01:36:58;;;;;;;19.23;12.75;;;;;;;;;;6190927;23;19997;-88
2022/03/10 01:39:25;;;;;;;17.77;12.90;;;;;;;;;;6191131;23;20009;-90
2022/03/10 01:41:51;;;;;;;17.58;11.98;;;;;;;;;;6191322;23;20001;-89
2022/03/10 01:44:20;;;;;;;20.52;13.02;;;;;;;;;;6190937;23;20009;-88
2022/03/10 01:46:46;;;;;;;20.27;13.13;;;;;;;;;;6191340;23;20299;-90
2022/03/10 01:49:13;;;;;;;21.98;13.65;;;;;;;;;;6191448;23;20080;-89
2022/03/10 01:51:39;;;;;;;18.00;12.52;;;;;;;;;;6164526;23;20009;-89
2022/03/10 01:54:05;;;;;;;20.75;13.60;;;;;;;;;;6190994;23;20024;-88
2022/03/10 01:56:32;;;;;;;21.10;14.05;;;;;;;;;;6191175;23;19997;-88
2022/03/10 01:58:59;;;;;;;21.50;14.57;;;;;;;;;;6191381;23;19997;-89
2022/03/10 02:01:25;;;;;;;21.88;14.95;;;;;;;;;;6164760;23;20238;-90
2022/03/10 02:03:51;;;;;;;23.33;15.60;;;;;;;;;;6191271;23;20005;-88
2022/03/10 02:06:17;;;;;;;21.55;15.25;;;;;;;;;;6164916;23;20008;-88
2022/03/10 02:11:28;;;;;;;24.15;15.43;;;;;;;;;;6190912;23;20012;-90
2022/03/10 02:13:55;;;;;;;24.88;16.55;;;;;;;;;;6191093;23;20005;-89
2022/03/10 02:19:06;;;;;;;23.73;15.80;;;;;;;;;;6190788;23;20056;-90
2022/03/10 02:21:32;;;;;;;26.33;16.70;;;;;;;;;;6190753;23;19997;-90
2022/03/10 02:23:58;;;;;;;25.23;16.75;;;;;;;;;;6190768;23;20414;-89
2022/03/10 02:26:24;;;;;;;26.02;17.13;;;;;;;;;;6192644;23;20276;-90
2022/03/10 02:28:50;;;;;;;25.40;16.52;;;;;;;;;;6193109;23;20024;-90
2022/03/10 02:31:17;;;;;;;24.50;16.23;;;;;;;;;;6193263;23;20075;-90
2022/03/10 02:33:43;;;;;;;25.08;16.40;;;;;;;;;;6192606;23;20008;-87
2022/03/10 02:36:09;;;;;;;26.10;17.08;;;;;;;;;;6192747;23;20005;-90
2022/03/10 02:38:35;;;;;;;25.90;16.85;;;;;;;;;;6193165;23;20064;-89
2022/03/10 02:41:01;;;;;;;23.85;16.27;;;;;;;;;;6193016;23;20001;-90
2022/03/10 02:43:27;;;;;;;23.75;16.30;;;;;;;;;;6193020;23;19997;-90
2022/03/10 02:45:53;;;;;;;24.63;16.00;;;;;;;;;;6192559;23;20001;-89
2022/03/10 02:48:19;;;;;;;24.33;16.63;;;;;;;;;;6192593;23;20068;-90
2022/03/10 02:50:46;;;;;;;25.50;16.55;;;;;;;;;;6192592;23;20048;-89
2022/03/10 02:53:12;;;;;;;25.27;16.90;;;;;;;;;;6166692;23;20001;-90
2022/03/10 02:55:42;;;;;;;25.98;17.75;;;;;;;;;;6192927;23;20068;-90
2022/03/10 02:58:08;;;;;;;24.55;16.20;;;;;;;;;;6192485;23;20005;-88
2022/03/10 03:00:34;;;;;;;25.38;16.60;;;;;;;;;;6166584;23;20012;-89
2022/03/10 03:03:00;;;;;;;24.63;16.30;;;;;;;;;;6192775;23;20001;-89
2022/03/10 03:05:26;;;;;;;26.48;17.60;;;;;;;;;;6192747;23;20004;-88
2022/03/10 03:07:52;;;;;;;27.35;17.63;;;;;;;;;;6192719;23;20004;-89
2022/03/10 03:10:18;;;;;;;24.48;16.38;;;;;;;;;;6192738;23;20096;-88
2022/03/10 03:12:46;;;;;;;25.98;16.67;;;;;;;;;;6192491;23;20402;-89
2022/03/10 03:15:12;;;;;;;25.35;16.60;;;;;;;;;;6192243;23;20039;-89
2022/03/10 03:17:38;;;;;;;27.50;17.77;;;;;;;;;;6192455;23;20005;-88
2022/03/10 03:20:05;;;;;;;23.17;15.93;;;;;;;;;;6192246;23;20045;-89
2022/03/10 03:22:31;;;;;;;26.80;16.80;;;;;;;;;;6192392;23;20001;-90
2022/03/10 03:24:57;;;;;;;24.98;16.65;;;;;;;;;;6192547;23;20113;-91
2022/03/10 03:27:23;;;;;;;25.35;16.80;;;;;;;;;;6192582;23;20256;-90
2022/03/10 03:29:50;;;;;;;26.65;17.10;;;;;;;;;;6192613;23;20076;-90
2022/03/10 03:32:16;;;;;;;23.73;16.33;;;;;;;;;;6192444;23;20009;-89
2022/03/10 03:34:42;;;;;;;25.35;17.08;;;;;;;;;;6166173;23;20005;-92
2022/03/10 03:37:08;;;;;;;20.20;14.27;;;;;;;;;;6191861;23;19997;-92
2022/03/10 03:39:34;;;;;;;22.00;14.38;;;;;;;;;;6191867;23;20387;-90
2022/03/10 03:42:00;;;;;;;22.88;14.90;;;;;;;;;;6192073;23;20004;-91
2022/03/10 03:44:26;;;;;;;20.52;14.10;;;;;;;;;;6192059;23;20009;-90
2022/03/10 03:46:52;;;;;;;21.95;13.55;;;;;;;;;;6192166;23;20005;-91
2022/03/10 03:49:18;;;;;;;22.88;14.23;;;;;;;;;;6192500;23;20047;-90
2022/03/10 03:51:44;;;;;;;25.80;14.95;;;;;;;;;;6191968;23;20009;-92
2022/03/10 03:54:10;;;;;;;23.35;14.95;;;;;;;;;;6192498;23;20012;-92
2022/03/10 03:56:39;;;;;;;23.90;15.23;;;;;;;;;;6191962;23;20361;-91
2022/03/10 03:59:06;;;;;;;24.58;15.52;;;;;;;;;;6192355;23;20009;-91
2022/03/10 04:01:32;;;;;;;20.67;13.63;;;;;;;;;;6191857;23;19997;-90
2022/03/10 04:03:58;;;;;;;20.02;13.82;;;;;;;;;;6192281;23;20055;-92
2022/03/10 04:06:24;;;;;;;17.85;12.00;;;;;;;;;;6165416;23;20007;-90
2022/03/10 04:08:50;;;;;;;15.20;11.13;;;;;;;;;;6192247;23;19997;-91
2022/03/10 04:11:17;;;;;;;17.42;11.48;;;;;;;;;;6192374;23;20344;-87
2022/03/10 04:13:43;;;;;;;18.02;11.93;;;;;;;;;;6192229;23;20076;-88
2022/03/10 04:16:24;;;;;;;14.68;10.32;;;;;;;;;;6165930;23;20386;-87
2022/03/10 04:18:50;;;;;;;15.27;9.45;;;;;;;;;;6191447;23;20384;-87
2022/03/10 04:21:17;;;;;;;15.40;9.80;;;;;;;;;;6191773;23;20021;-87
2022/03/10 04:23:43;;;;;;;15.00;9.95;;;;;;;;;;6191592;23;20009;-88
2022/03/10 04:26:09;;;;;;;14.30;9.90;;;;;;;;;;6192028;23;20008;-89
2022/03/10 04:28:35;;;;;;;15.27;9.35;;;;;;;;;;6191960;23;20012;-89
2022/03/10 04:31:01;;;;;;;16.15;9.85;;;;;;;;;;6192013;23;20005;-88
2022/03/10 04:33:27;;;;;;;18.95;11.23;;;;;;;;;;6191624;23;20007;-91
2022/03/10 04:35:55;;;;;;;21.63;12.23;;;;;;;;;;6191685;23;20047;-91
2022/03/10 04:38:21;;;;;;;15.13;10.18;;;;;;;;;;6165549;23;20028;-88
2022/03/10 04:40:47;;;;;;;16.90;10.10;;;;;;;;;;6191882;23;20016;-92
2022/03/10 04:43:13;;;;;;;15.52;10.07;;;;;;;;;;6191822;23;20004;-91
2022/03/10 04:45:40;;;;;;;19.10;10.88;;;;;;;;;;6191809;23;20005;-92
2022/03/10 04:48:06;;;;;;;22.70;10.48;;;;;;;;;;6165298;23;20020;-91
2022/03/10 04:50:33;;;;;;;17.25;9.90;;;;;;;;;;6191253;23;20371;-91
2022/03/10 04:52:59;;;;;;;14.00;9.23;;;;;;;;;;6165050;23;20001;-92
2022/03/10 04:55:25;;;;;;;14.73;9.75;;;;;;;;;;6191800;23;20252;-91
2022/03/10 04:57:51;;;;;;;16.17;9.50;;;;;;;;;;6191802;23;19997;-92
2022/03/10 05:00:19;;;;;;;14.35;9.48;;;;;;;;;;6165645;23;20091;-93
2022/03/10 05:02:46;;;;;;;17.90;11.20;;;;;;;;;;6164856;23;20005;-89
2022/03/10 05:05:17;;;;;;;32.33;13.77;;;;;;;;;;6191344;23;19997;-90
2022/03/10 05:07:43;;;;;;;33.78;13.02;;;;;;;;;;6191624;23;20005;-91
2022/03/10 05:10:10;;;;;;;20.73;11.73;;;;;;;;;;6164720;23;20009;-90
2022/03/10 05:12:43;;;;;;;18.90;11.05;;;;;;;;;;6191486;23;20272;-90
2022/03/10 05:15:09;;;;;;;17.20;10.27;;;;;;;;;;6191051;23;20124;-89
2022/03/10 05:17:36;;;;;;;18.20;10.48;;;;;;;;;;6191468;23;20005;-89
2022/03/10 05:20:02;;;;;;;16.70;9.95;;;;;;;;;;6190928;23;20024;-89
2022/03/10 05:22:41;;;;;;;16.95;10.05;;;;;;;;;;6191427;23;20080;-89
2022/03/10 05:25:07;;;;;;;17.10;9.73;;;;;;;;;;6191536;23;20051;-89
2022/03/10 05:27:33;;;;;;;17.30;9.45;;;;;;;;;;6164625;23;20092;-91
2022/03/10 05:29:59;;;;;;;14.57;9.68;;;;;;;;;;6190315;23;20005;-90
2022/03/10 05:32:25;;;;;;;14.55;9.23;;;;;;;;;;6190417;23;20079;-90
2022/03/10 05:34:51;;;;;;;13.50;8.65;;;;;;;;;;6190631;23;20005;-91
2022/03/10 05:37:18;;;;;;;13.90;9.15;;;;;;;;;;6190896;23;20001;-90
2022/03/10 05:39:44;;;;;;;15.93;9.27;;;;;;;;;;6191030;23;20001;-89
2022/03/10 05:42:10;;;;;;;15.27;9.38;;;;;;;;;;6164516;23;20013;-89
2022/03/10 05:44:38;;;;;;;14.23;9.35;;;;;;;;;;6164631;23;20025;-90
2022/03/10 05:47:04;;;;;;;13.65;8.45;;;;;;;;;;6191083;23;20260;-92
2022/03/10 05:49:30;;;;;;;16.65;9.05;;;;;;;;;;6190814;23;20052;-90
2022/03/10 05:51:56;;;;;;;14.25;8.50;;;;;;;;;;6164953;23;20047;-91
2022/03/10 05:54:23;;;;;;;13.88;8.85;;;;;;;;;;6190864;23;20001;-89
2022/03/10 05:56:49;;;;;;;14.15;9.05;;;;;;;;;;6164592;23;19997;-88
2022/03/10 05:59:15;;;;;;;16.25;9.70;;;;;;;;;;6190791;23;20011;-90
2022/03/10 06:01:41;;;;;;;16.42;9.05;;;;;;;;;;6190720;23;20001;-89
2022/03/10 06:04:07;;;;;;;15.18;9.13;;;;;;;;;;6190901;23;20008;-90
2022/03/10 06:06:33;;;;;;;17.38;10.70;;;;;;;;;;6190569;23;19997;-90
2022/03/10 06:08:59;;;;;;;12.68;8.68;;;;;;;;;;6190820;23;20001;-91
2022/03/10 06:11:25;;;;;;;18.27;11.05;;;;;;;;;;6190762;23;20003;-91
2022/03/10 06:13:51;;;;;;;12.30;7.80;;;;;;;;;;6164801;23;20005;-90
2022/03/10 06:16:17;;;;;;;14.80;8.00;;;;;;;;;;6164166;23;20049;-91
2022/03/10 06:18:44;;;;;;;14.65;8.38;;;;;;;;;;6190877;23;20009;-91
2022/03/10 06:21:10;;;;;;;13.82;8.13;;;;;;;;;;6164820;23;20020;-90
2022/03/10 06:23:36;;;;;;;13.65;8.32;;;;;;;;;;6164494;23;20009;-90
2022/03/10 06:26:02;;;;;;;12.63;8.07;;;;;;;;;;6191214;23;20000;-92
2022/03/10 06:28:29;;;;;;;14.65;8.40;;;;;;;;;;6190493;23;20002;-91
2022/03/10 06:30:55;;;;;;;12.07;7.68;;;;;;;;;;6190990;23;20068;-90
2022/03/10 06:33:22;;;;;;;13.77;8.88;;;;;;;;;;6190965;23;20005;-92
2022/03/10 06:35:48;;;;;;;15.70;9.38;;;;;;;;;;6164665;23;20422;-90
2022/03/10 06:38:14;;;;;;;12.95;7.40;;;;;;;;;;6164813;23;20432;-91
2022/03/10 06:40:40;;;;;;;11.75;7.35;;;;;;;;;;6190506;23;20001;-92
2022/03/10 06:43:06;;;;;;;11.02;7.10;;;;;;;;;;6190757;23;20012;-92
2022/03/10 06:45:32;;;;;;;11.23;7.32;;;;;;;;;;6190647;23;20080;-91
2022/03/10 06:47:58;;;;;;;11.52;7.60;;;;;;;;;;6191014;23;20019;-91
2022/03/10 06:50:24;;;;;;;10.90;6.88;;;;;;;;;;6190534;23;20009;-90
2022/03/10 06:52:53;;;;;;;13.55;8.00;;;;;;;;;;6164522;23;20047;-91
2022/03/10 06:55:19;;;;;;;11.35;7.80;;;;;;;;;;6191033;23;20256;-94
2022/03/10 06:57:46;;;;;;;13.70;7.78;;;;;;;;;;6190547;23;20008;-90
2022/03/10 07:00:12;;;;;;;14.15;7.82;;;;;;;;;;6190702;23;20089;-94
2022/03/10 07:02:38;;;;;;;12.35;7.40;;;;;;;;;;6191044;23;20008;-90
2022/03/10 07:05:04;;;;;;;13.55;7.10;;;;;;;;;;6190185;23;20005;-89
2022/03/10 07:07:30;;;;;;;13.07;8.05;;;;;;;;;;6164511;23;20005;-89
2022/03/10 07:09:56;;;;;;;12.68;6.60;;;;;;;;;;6190867;23;20008;-90
2022/03/10 07:12:22;;;;;;;14.63;7.38;;;;;;;;;;6165929;23;20016;-90
2022/03/10 07:14:48;;;;;;;14.77;8.38;;;;;;;;;;6192553;23;20011;-89
2022/03/10 07:17:36;;;;;;;11.90;7.93;;;;;;;;;;6192714;23;20026;-90
2022/03/10 07:20:02;;;;;;;15.60;8.68;;;;;;;;;;6192247;23;20019;-89
2022/03/10 07:22:29;;;;;;;13.05;7.75;;;;;;;;;;6192394;23;20352;-90
2022/03/10 07:24:55;;;;;;;14.05;7.63;;;;;;;;;;6192752;23;20170;-91
2022/03/10 07:27:21;;;;;;;13.25;7.97;;;;;;;;;;6166682;23;20009;-89
2022/03/10 07:29:47;;;;;;;14.75;8.05;;;;;;;;;;6166179;23;20008;-91
2022/03/10 07:32:13;;;;;;;12.77;7.82;;;;;;;;;;6165797;23;20307;-90
2022/03/10 07:34:39;;;;;;;11.18;7.60;;;;;;;;;;6165920;23;20108;-90
2022/03/10 07:37:06;;;;;;;13.85;8.68;;;;;;;;;;6191807;23;20011;-90
2022/03/10 07:39:32;;;;;;;13.85;8.43;;;;;;;;;;6166227;23;20040;-90
2022/03/10 07:42:00;;;;;;;15.52;7.57;;;;;;;;;;6195286;23;20001;-90
2022/03/10 07:44:26;;;;;;;13.80;9.65;;;;;;;;;;6166736;23;20020;-90
2022/03/10 07:46:55;;;;;;;15.38;8.27;;;;;;;;;;6165643;23;20084;-91
2022/03/10 07:49:21;;;;;;;12.80;7.93;;;;;;;;;;6192527;23;20009;-90
2022/03/10 07:51:47;;;;;;;11.32;7.80;;;;;;;;;;6165707;23;20006;-89
2022/03/10 07:54:13;;;;;;;11.68;7.72;;;;;;;;;;6191663;23;20084;-90
2022/03/10 07:56:40;;;;;;;44.63;21.65;;;;;;;;;;6192149;23;20379;-90
2022/03/10 07:59:06;;;;;;;14.98;8.23;;;;;;;;;;6165566;23;20012;-91
2022/03/10 08:01:32;;;;;;;13.00;8.18;;;;;;;;;;6192181;23;20226;-91
2022/03/10 08:03:58;;;;;;;13.52;8.30;;;;;;;;;;6192009;23;20005;-91
2022/03/10 08:06:26;;;;;;;15.05;8.38;;;;;;;;;;6191645;23;20004;-90
2022/03/10 08:08:52;;;;;;;13.20;8.18;;;;;;;;;;6191658;23;19997;-90
2022/03/10 08:11:18;;;;;;;14.98;7.80;;;;;;;;;;6164929;23;20001;-91
2022/03/10 08:13:44;;;;;;;13.98;7.43;;;;;;;;;;6192060;23;19997;-91
2022/03/10 08:16:11;;;;;;;10.73;6.93;;;;;;;;;;6192070;23;20005;-90
2022/03/10 08:18:38;;;;;;;14.23;8.20;;;;;;;;;;6165045;23;20017;-91
2022/03/10 08:21:04;;;;;;;14.38;10.25;;;;;;;;;;6165198;23;20013;-91
2022/03/10 08:23:30;;;;;;;15.20;9.70;;;;;;;;;;6191295;23;20375;-90
2022/03/10 08:25:56;;;;;;;13.32;8.80;;;;;;;;;;6191958;23;20256;-91
2022/03/10 08:28:23;;;;;;;15.93;9.43;;;;;;;;;;6192176;23;20008;-90
2022/03/10 08:30:49;;;;;;;16.73;9.70;;;;;;;;;;6191799;23;20386;-90
2022/03/10 08:33:15;;;;;;;15.35;7.97;;;;;;;;;;6165004;23;20032;-89
2022/03/10 08:35:41;;;;;;;15.40;9.55;;;;;;;;;;6190977;23;20001;-90
2022/03/10 08:38:08;;;;;;;14.80;8.63;;;;;;;;;;6165080;23;20048;-91
2022/03/10 08:40:34;;;;;;;17.77;9.70;;;;;;;;;;6165682;23;20013;-91
2022/03/10 08:43:00;;;;;;;14.02;8.50;;;;;;;;;;6191437;23;19997;-90
2022/03/10 08:45:26;;;;;;;13.18;8.18;;;;;;;;;;6165012;23;20059;-91
2022/03/10 08:47:54;;;;;;;18.98;9.50;;;;;;;;;;6191732;23;20071;-90
2022/03/10 08:50:21;;;;;;;16.92;10.48;;;;;;;;;;6165229;23;20013;-90
2022/03/10 08:52:47;;;;;;;14.32;9.15;;;;;;;;;;6191056;23;20394;-90
2022/03/10 08:55:13;;;;;;;13.23;7.95;;;;;;;;;;6191249;23;20009;-90
2022/03/10 08:57:39;;;;;;;15.57;9.02;;;;;;;;;;6191463;23;19997;-90
2022/03/10 09:00:06;;;;;;;16.85;9.88;;;;;;;;;;6191430;23;20008;-91
2022/03/10 09:02:32;;;;;;;18.50;9.85;;;;;;;;;;6190893;23;19997;-91
2022/03/10 09:04:59;;;;;;;16.20;9.75;;;;;;;;;;6191645;23;20011;-91
2022/03/10 09:07:25;;;;;;;14.55;8.93;;;;;;;;;;6191423;23;20324;-92
2022/03/10 09:09:51;;;;;;;15.05;9.07;;;;;;;;;;6191650;23;20015;-91
2022/03/10 09:12:17;;;;;;;13.38;8.55;;;;;;;;;;6191179;23;20079;-90
2022/03/10 09:14:43;;;;;;;14.45;8.13;;;;;;;;;;6165618;23;20040;-90
2022/03/10 09:17:10;;;;;;;12.82;8.18;;;;;;;;;;6191336;23;20001;-92
2022/03/10 09:19:36;;;;;;;13.98;8.90;;;;;;;;;;6191177;23;20095;-90
2022/03/10 09:22:02;;;;;;;18.52;8.85;;;;;;;;;;6191576;23;20001;-91
2022/03/10 09:24:30;;;;;;;13.48;8.57;;;;;;;;;;6165162;23;20001;-89
2022/03/10 09:26:59;;;;;;;16.27;8.07;;;;;;;;;;6191104;23;20005;-90
2022/03/10 09:29:25;;;;;;;13.13;8.68;;;;;;;;;;6164867;23;20016;-91
2022/03/10 09:31:52;;;;;;;16.35;8.45;;;;;;;;;;6191466;23;20004;-91
2022/03/10 09:34:18;;;;;;;15.15;9.32;;;;;;;;;;6191208;23;20023;-90
2022/03/10 09:36:44;;;;;;;14.23;9.15;;;;;;;;;;6191375;23;20047;-91
2022/03/10 09:39:10;;;;;;;14.75;8.98;;;;;;;;;;6191339;23;19997;-90
2022/03/10 09:41:38;;;;;;;22.13;10.43;;;;;;;;;;6190905;23;20001;-90
2022/03/10 09:44:14;;;;;;;13.75;8.95;;;;;;;;;;6191319;23;20256;-89
2022/03/10 09:46:41;;;;;;;14.95;9.18;;;;;;;;;;6190918;23;19997;-89
2022/03/10 09:49:07;;;;;;;16.52;10.57;;;;;;;;;;6191008;23;20064;-89
2022/03/10 09:51:33;;;;;;;13.93;9.57;;;;;;;;;;6164906;23;20360;-89
2022/03/10 09:54:00;;;;;;;24.50;13.75;;;;;;;;;;6191038;23;20005;-89
2022/03/10 09:56:26;;;;;;;21.10;13.38;;;;;;;;;;6164332;23;20009;-90
2022/03/10 09:58:52;;;;;;;19.35;10.60;;;;;;;;;;6190784;23;20391;-89
2022/03/10 10:01:19;;;;;;;17.23;10.68;;;;;;;;;;6164360;23;20067;-91
2022/03/10 10:03:45;;;;;;;16.52;10.00;;;;;;;;;;6164353;23;20001;-90
2022/03/10 10:06:11;;;;;;;21.83;14.57;;;;;;;;;;6190756;23;20039;-87
2022/03/10 10:08:41;;;;;;;20.08;10.90;;;;;;;;;;6190836;23;20005;-89
2022/03/10 10:11:08;;;;;;;20.67;9.98;;;;;;;;;;6191430;23;20009;-90
2022/03/10 10:13:37;;;;;;;16.80;10.38;;;;;;;;;;6190943;23;20356;-89
2022/03/10 10:16:04;;;;;;;14.88;9.60;;;;;;;;;;6191133;23;20076;-91
2022/03/10 10:18:31;;;;;;;14.95;9.73;;;;;;;;;;6190823;23;20288;-90
2022/03/10 10:20:57;;;;;;;17.05;11.27;;;;;;;;;;6191211;23;20080;-89
2022/03/10 10:23:25;;;;;;;17.90;9.70;;;;;;;;;;6191265;23;20001;-90
2022/03/10 10:25:55;;;;;;;18.17;11.50;;;;;;;;;;6190761;23;20044;-91
2022/03/10 10:28:27;;;;;;;17.67;11.32;;;;;;;;;;6190905;23;20063;-91
2022/03/10 10:30:54;;;;;;;19.17;11.03;;;;;;;;;;6190863;23;20064;-90
2022/03/10 10:33:20;;;;;;;15.57;10.95;;;;;;;;;;6191095;23;20294;-90
2022/03/10 10:35:46;;;;;;;17.27;11.25;;;;;;;;;;6164815;23;20051;-88
2022/03/10 10:38:28;;;;;;;20.45;12.60;;;;;;;;;;6191190;23;20008;-88
2022/03/10 10:41:14;;;;;;;17.45;11.77;;;;;;;;;;6190612;23;20043;-89
2022/03/10 10:43:41;;;;;;;18.17;12.15;;;;;;;;;;6190638;23;20002;-89
2022/03/10 10:46:07;;;;;;;16.92;11.82;;;;;;;;;;6191091;23;20364;-89
2022/03/10 10:48:45;;;;;;;17.98;11.63;;;;;;;;;;6166530;23;20009;-88
2022/03/10 10:51:12;;;;;;;16.15;11.13;;;;;;;;;;6192555;23;20020;-88
2022/03/10 10:53:39;;;;;;;21.70;12.40;;;;;;;;;;6192112;23;20009;-88
2022/03/10 10:56:06;;;;;;;17.63;11.93;;;;;;;;;;6192774;23;20012;-89
2022/03/10 10:58:32;;;;;;;20.00;13.23;;;;;;;;;;6166405;23;20005;-87
2022/03/10 11:00:58;;;;;;;21.38;12.00;;;;;;;;;;6166101;23;20063;-87
2022/03/10 11:03:37;;;;;;;19.67;13.23;;;;;;;;;;6192712;23;20001;-88
2022/03/10 11:06:05;;;;;;;19.38;12.00;;;;;;;;;;6192514;23;20072;-87
2022/03/10 11:08:31;;;;;;;20.73;12.85;;;;;;;;;;6166210;23;20008;-87
2022/03/10 11:10:57;;;;;;;19.38;13.52;;;;;;;;;;6192659;23;20009;-87
2022/03/10 11:13:24;;;;;;;19.38;12.35;;;;;;;;;;6192306;23;20459;-87
2022/03/10 11:15:53;;;;;;;23.70;14.05;;;;;;;;;;6166248;23;20005;-87
2022/03/10 11:18:21;;;;;;;19.35;12.95;;;;;;;;;;6192015;23;20040;-87
2022/03/10 11:20:49;;;;;;;19.33;12.98;;;;;;;;;;6192815;23;20001;-87
2022/03/10 11:23:20;;;;;;;21.05;12.40;;;;;;;;;;6166322;23;20071;-87
2022/03/10 11:25:53;;;;;;;20.17;12.10;;;;;;;;;;6192592;23;20025;-87
2022/03/10 11:28:28;;;;;;;19.38;11.75;;;;;;;;;;6192538;23;20072;-87
2022/03/10 11:30:56;;;;;;;26.63;12.48;;;;;;;;;;6192382;23;20001;-87
2022/03/10 11:33:29;;;;;;;17.48;11.77;;;;;;;;;;6192419;23;20007;-87
2022/03/10 11:35:55;;;;;;;18.70;12.20;;;;;;;;;;6166177;23;20368;-87
2022/03/10 11:38:30;;;;;;;18.67;11.52;;;;;;;;;;6166108;23;20005;-87
2022/03/10 11:40:57;;;;;;;15.15;10.43;;;;;;;;;;6192426;23;20040;-87
2022/03/10 11:43:26;;;;;;;17.50;11.60;;;;;;;;;;6192449;23;20001;-86
2022/03/10 11:45:52;;;;;;;21.00;12.52;;;;;;;;;;6192278;23;20005;-87
2022/03/10 11:48:24;;;;;;;19.95;11.98;;;;;;;;;;6191574;23;20005;-87
2022/03/10 11:50:50;;;;;;;20.80;12.88;;;;;;;;;;6192333;23;20024;-87
2022/03/10 11:53:17;;;;;;;18.27;11.10;;;;;;;;;;6192156;23;20005;-86
2022/03/10 11:55:45;;;;;;;19.40;11.55;;;;;;;;;;6191837;23;20399;-87
2022/03/10 11:58:13;;;;;;;18.90;11.70;;;;;;;;;;6191168;23;20360;-86
2022/03/10 12:00:49;;;;;;;18.15;11.57;;;;;;;;;;6166303;23;20052;-87
2022/03/10 12:03:19;;;;;;;16.13;10.77;;;;;;;;;;6192207;23;20051;-86
2022/03/10 12:05:55;;;;;;;15.70;10.85;;;;;;;;;;6192125;23;20008;-87
2022/03/10 12:08:22;;;;;;;16.70;10.32;;;;;;;;;;6191741;23;20005;-87
2022/03/10 12:10:49;;;;;;;17.02;10.18;;;;;;;;;;6191757;23;20032;-86
2022/03/10 12:13:24;;;;;;;20.27;12.02;;;;;;;;;;6191625;23;20001;-87
2022/03/10 12:15:51;;;;;;;18.73;11.90;;;;;;;;;;6191911;23;20079;-87
2022/03/10 12:18:18;;;;;;;17.25;11.35;;;;;;;;;;6165353;23;20017;-85
2022/03/10 12:20:44;;;;;;;17.55;11.48;;;;;;;;;;6191703;23;20009;-87
2022/03/10 12:23:19;;;;;;;19.35;11.02;;;;;;;;;;6192020;23;20008;-87
2022/03/10 12:25:46;;;;;;;18.75;10.18;;;;;;;;;;6191971;23;20012;-87
2022/03/10 12:28:21;;;;;;;18.33;10.68;;;;;;;;;;6191892;23;20350;-87
2022/03/10 12:30:47;;;;;;;16.35;10.27;;;;;;;;;;6165683;23;20005;-87
2022/03/10 12:33:14;;;;;;;13.73;9.45;;;;;;;;;;6191831;23;20028;-87
2022/03/10 12:35:43;;;;;;;12.90;9.25;;;;;;;;;;6191649;23;20011;-87
2022/03/10 12:38:11;;;;;;;16.45;10.05;;;;;;;;;;6191947;23;20005;-88
2022/03/10 12:40:38;;;;;;;12.45;9.43;;;;;;;;;;6191529;23;20348;-87
2022/03/10 12:43:06;;;;;;;16.77;10.02;;;;;;;;;;6165072;23;20009;-87
2022/03/10 12:45:32;;;;;;;13.48;9.07;;;;;;;;;;6191684;23;20005;-87
2022/03/10 12:48:03;;;;;;;14.05;8.45;;;;;;;;;;6191339;23;20023;-87
2022/03/10 12:50:32;;;;;;;13.57;8.15;;;;;;;;;;6191667;23;20005;-86
2022/03/10 12:52:58;;;;;;;12.70;7.72;;;;;;;;;;6191276;23;20012;-86
2022/03/10 12:55:27;;;;;;;9.52;6.45;;;;;;;;;;6191175;23;20044;-87
2022/03/10 12:57:57;;;;;;;12.20;7.47;;;;;;;;;;6191465;23;20001;-87
2022/03/10 13:00:23;;;;;;;16.45;8.63;;;;;;;;;;6164746;23;20080;-86
2022/03/10 13:02:50;;;;;;;15.02;8.82;;;;;;;;;;6191615;23;20001;-86
2022/03/10 13:05:22;;;;;;;14.88;9.02;;;;;;;;;;6191191;23;20080;-86
2022/03/10 13:07:48;;;;;;;19.67;12.05;;;;;;;;;;6190795;23;20056;-87
2022/03/10 13:10:15;;;;;;;14.85;8.77;;;;;;;;;;6191092;23;20005;-87
2022/03/10 13:12:47;;;;;;;12.73;7.75;;;;;;;;;;6191414;23;20027;-87
2022/03/10 13:15:24;;;;;;;12.10;7.40;;;;;;;;;;6191060;23;20008;-87
2022/03/10 13:17:50;;;;;;;17.27;9.60;;;;;;;;;;6191156;23;20076;-86
2022/03/10 13:20:20;;;;;;;12.65;6.63;;;;;;;;;;6190945;23;20024;-86
2022/03/10 13:22:54;;;;;;;13.27;6.93;;;;;;;;;;6191057;23;20387;-86
2022/03/10 13:25:21;;;;;;;13.63;7.35;;;;;;;;;;6191395;23;20016;-87
2022/03/10 13:27:47;;;;;;;13.52;7.43;;;;;;;;;;6191313;23;20048;-86
2022/03/10 13:30:22;;;;;;;9.25;5.85;;;;;;;;;;6164191;23;20372;-87
2022/03/10 13:32:48;;;;;;;7.40;4.32;;;;;;;;;;6190890;23;20040;-87
2022/03/10 13:35:15;;;;;;;7.63;4.97;;;;;;;;;;6191145;23;20009;-86
2022/03/10 13:37:42;;;;;;;9.57;5.70;;;;;;;;;;6190932;23;20523;-87
2022/03/10 13:40:08;;;;;;;9.23;4.60;;;;;;;;;;6191136;23;19999;-86
2022/03/10 13:42:34;;;;;;;8.40;5.00;;;;;;;;;;6191059;23;20005;-87
2022/03/10 13:45:13;;;;;;;7.15;5.05;;;;;;;;;;6191002;23;20379;-87
2022/03/10 13:47:48;;;;;;;11.35;5.82;;;;;;;;;;6190687;23;20033;-86
2022/03/10 13:50:18;;;;;;;6.82;4.30;;;;;;;;;;6190922;23;20376;-87
2022/03/10 13:52:44;;;;;;;11.77;5.82;;;;;;;;;;6191136;23;20001;-87
2022/03/10 13:55:13;;;;;;;12.52;7.55;;;;;;;;;;6164118;23;20052;-86
2022/03/10 13:57:43;;;;;;;9.43;4.78;;;;;;;;;;6191148;23;20098;-87
2022/03/10 14:00:09;;;;;;;10.18;4.65;;;;;;;;;;6190965;23;20367;-86
2022/03/10 14:02:36;;;;;;;9.45;4.55;;;;;;;;;;6190725;23;20078;-87
2022/03/10 14:05:12;;;;;;;8.13;4.85;;;;;;;;;;6164937;23;20051;-87
2022/03/10 14:07:38;;;;;;;8.32;4.28;;;;;;;;;;6190833;23;20012;-87
2022/03/10 14:10:06;;;;;;;7.32;4.18;;;;;;;;;;6164976;23;20010;-87
2022/03/10 14:12:33;;;;;;;10.55;5.82;;;;;;;;;;6190546;23;20001;-88
2022/03/10 14:14:59;;;;;;;10.32;6.72;;;;;;;;;;6190450;23;20364;-89
2022/03/10 14:17:41;;;;;;;15.25;8.70;;;;;;;;;;6191182;23;20001;-87
2022/03/10 14:20:07;;;;;;;9.75;5.15;;;;;;;;;;6190581;23;20091;-86
2022/03/10 14:22:34;;;;;;;6.85;4.85;;;;;;;;;;6192435;23;19997;-86
2022/03/10 14:25:01;;;;;;;17.20;8.82;;;;;;;;;;6192445;23;20028;-86
2022/03/10 14:27:27;;;;;;;11.65;5.97;;;;;;;;;;6166780;23;20001;-86
2022/03/10 14:30:00;;;;;;;8.13;4.32;;;;;;;;;;6192761;23;20005;-87
2022/03/10 14:32:26;;;;;;;11.05;6.45;;;;;;;;;;6192931;23;20013;-87
2022/03/10 14:34:56;;;;;;;9.30;5.78;;;;;;;;;;6192650;23;20391;-87